createdAt,value
2023-02-11T00:00:34.279Z,50.17
2023-02-11T00:03:01.621Z,51.28
2023-02-11T00:05:28.615Z,43.72
2023-02-11T00:07:55.656Z,46.90
2023-02-11T00:10:22.644Z,45.75
2023-02-11T00:12:49.639Z,44.40
2023-02-11T00:15:16.598Z,44.75
2023-02-11T00:17:43.530Z,47.38
2023-02-11T00:20:10.726Z,48.70
2023-02-11T00:22:37.761Z,48.97
2023-02-11T00:25:05.025Z,45.70
2023-02-11T00:27:31.960Z,47.78
2023-02-11T00:30:00.664Z,44.63
2023-02-11T00:32:27.673Z,45.95
2023-02-11T00:34:55.329Z,48.08
2023-02-11T00:37:22.822Z,45.80
2023-02-11T00:39:50.318Z,45.22
2023-02-11T00:42:17.395Z,45.53
2023-02-11T00:44:44.454Z,50.67
2023-02-11T00:47:11.500Z,46.22
2023-02-11T00:49:40.403Z,50.80
2023-02-11T00:52:07.650Z,49.80
2023-02-11T00:54:34.981Z,47.85
2023-02-11T00:57:01.967Z,49.40
2023-02-11T00:59:28.835Z,50.45
2023-02-11T01:01:55.983Z,46.33
2023-02-11T01:04:23.371Z,45.35
2023-02-11T01:06:50.667Z,47.60
2023-02-11T01:09:17.844Z,46.55
2023-02-11T01:11:44.671Z,45.03
2023-02-11T01:14:11.603Z,46.72
2023-02-11T01:16:38.625Z,50.03
2023-02-11T01:19:05.773Z,45.28
2023-02-11T01:21:32.644Z,49.55
2023-02-11T01:23:59.692Z,48.30
2023-02-11T01:26:26.470Z,47.20
2023-02-11T01:28:53.446Z,49.22
2023-02-11T01:31:20.332Z,46.38
2023-02-11T01:33:47.207Z,45.90
2023-02-11T01:36:14.136Z,47.40
2023-02-11T01:38:41.436Z,44.30
2023-02-11T01:41:11.382Z,45.17
2023-02-11T01:43:41.283Z,48.15
2023-02-11T01:46:17.993Z,48.10
2023-02-11T01:48:49.503Z,48.35
2023-02-11T01:51:25.216Z,47.28
2023-02-11T01:54:12.944Z,42.75
2023-02-11T01:57:04.286Z,46.67
2023-02-11T01:59:36.828Z,42.25
2023-02-11T02:02:10.016Z,46.22
2023-02-11T02:04:53.571Z,50.13
2023-02-11T02:07:28.892Z,44.67
2023-02-11T02:10:00.730Z,46.22
2023-02-11T02:12:27.909Z,49.35
2023-02-11T02:15:17.722Z,48.17
2023-02-11T02:17:57.876Z,44.03
2023-02-11T02:20:36.906Z,47.63
2023-02-11T02:23:25.049Z,45.28
2023-02-11T02:26:14.194Z,46.20
2023-02-11T02:29:19.248Z,47.40
2023-02-11T02:32:24.070Z,45.30
2023-02-11T02:34:53.832Z,45.10
2023-02-11T02:37:23.572Z,45.47
2023-02-11T02:39:50.840Z,44.00
2023-02-11T02:42:20.403Z,47.97
2023-02-11T02:44:52.092Z,43.88
2023-02-11T02:47:19.322Z,48.30
2023-02-11T02:49:46.205Z,43.42
2023-02-11T02:52:37.657Z,43.95
2023-02-11T02:55:13.339Z,48.20
2023-02-11T02:57:49.453Z,45.13
2023-02-11T03:00:48.368Z,50.45
2023-02-11T03:03:33.790Z,43.97
2023-02-11T03:06:25.967Z,46.55
2023-02-11T03:09:03.062Z,43.25
2023-02-11T03:11:30.336Z,42.70
2023-02-11T03:14:01.536Z,48.85
2023-02-11T03:16:29.741Z,45.30
2023-02-11T03:19:03.043Z,44.08
2023-02-11T03:21:32.911Z,43.35
2023-02-11T03:24:10.734Z,46.47
2023-02-11T03:26:53.802Z,44.25
2023-02-11T03:29:32.436Z,41.53
2023-02-11T03:32:20.107Z,44.03
2023-02-11T03:34:50.473Z,41.13
2023-02-11T03:37:32.822Z,50.33
2023-02-11T03:40:08.240Z,45.60
2023-02-11T03:42:42.662Z,41.90
2023-02-11T03:45:14.561Z,46.70
2023-02-11T03:47:46.518Z,44.53
2023-02-11T03:50:16.125Z,42.88
2023-02-11T03:52:44.074Z,40.25
2023-02-11T03:55:16.052Z,37.17
2023-02-11T03:57:43.011Z,39.72
2023-02-11T04:00:12.099Z,40.47
2023-02-11T04:02:40.149Z,42.80
2023-02-11T04:05:09.333Z,44.80
2023-02-11T04:07:36.092Z,39.88
2023-02-11T04:10:03.332Z,41.72
2023-02-11T04:12:30.464Z,39.10
2023-02-11T04:14:57.418Z,41.05
2023-02-11T04:17:24.604Z,43.38
2023-02-11T04:19:51.491Z,36.28
2023-02-11T04:22:18.578Z,39.70
2023-02-11T04:24:45.407Z,37.40
2023-02-11T04:27:12.366Z,39.67
2023-02-11T04:29:39.297Z,36.95
2023-02-11T04:32:06.258Z,44.38
2023-02-11T04:34:33.458Z,42.58
2023-02-11T04:37:00.455Z,40.28
2023-02-11T04:39:27.384Z,40.10
2023-02-11T04:41:54.190Z,40.97
2023-02-11T04:44:21.245Z,44.30
2023-02-11T04:46:48.447Z,44.80
2023-02-11T04:49:16.368Z,50.15
2023-02-11T04:51:46.963Z,37.63
2023-02-11T04:54:15.183Z,41.40
2023-02-11T04:56:42.112Z,36.97
2023-02-11T04:59:09.083Z,39.55
2023-02-11T05:01:35.914Z,39.33
2023-02-11T05:04:02.918Z,41.15
2023-02-11T05:06:30.025Z,42.05
2023-02-11T05:08:57.310Z,39.97
2023-02-11T05:11:25.972Z,37.17
2023-02-11T05:13:53.375Z,37.13
2023-02-11T05:16:20.858Z,39.58
2023-02-11T05:18:48.549Z,42.05
2023-02-11T05:21:19.031Z,41.20
2023-02-11T05:23:46.392Z,41.90
2023-02-11T05:26:13.578Z,40.30
2023-02-11T05:28:41.123Z,39.83
2023-02-11T05:31:08.088Z,46.55
2023-02-11T05:33:35.052Z,43.70
2023-02-11T05:36:08.474Z,42.35
2023-02-11T05:38:36.049Z,45.83
2023-02-11T05:41:04.238Z,45.92
2023-02-11T05:43:31.413Z,39.35
2023-02-11T05:45:58.468Z,44.15
2023-02-11T05:48:25.348Z,40.35
2023-02-11T05:50:52.339Z,40.42
2023-02-11T05:53:19.275Z,38.40
2023-02-11T05:55:46.358Z,43.83
2023-02-11T05:58:13.787Z,38.92
2023-02-11T06:00:40.672Z,38.20
2023-02-11T06:03:08.170Z,43.78
2023-02-11T06:05:35.092Z,40.67
2023-02-11T06:08:02.015Z,44.97
2023-02-11T06:10:28.808Z,39.83
2023-02-11T06:12:55.705Z,46.67
2023-02-11T06:15:22.592Z,43.22
2023-02-11T06:17:49.405Z,42.03
2023-02-11T06:20:16.575Z,40.35
2023-02-11T06:22:43.548Z,41.88
2023-02-11T06:25:11.450Z,37.03
2023-02-11T06:27:38.889Z,43.72
2023-02-11T06:30:07.895Z,42.13
2023-02-11T06:32:43.969Z,38.72
2023-02-11T06:35:12.827Z,38.88
2023-02-11T06:37:40.844Z,41.60
2023-02-11T06:40:08.046Z,42.45
2023-02-11T06:42:36.290Z,45.63
2023-02-11T06:45:06.028Z,41.05
2023-02-11T06:47:33.203Z,41.97
2023-02-11T06:50:00.360Z,42.30
2023-02-11T06:52:27.593Z,44.03
2023-02-11T06:54:54.451Z,40.13
2023-02-11T06:57:21.449Z,46.55
2023-02-11T06:59:48.579Z,39.35
2023-02-11T07:02:15.649Z,41.58
2023-02-11T07:04:42.722Z,41.20
2023-02-11T07:07:09.489Z,40.55
2023-02-11T07:09:36.437Z,38.63
2023-02-11T07:12:03.494Z,37.47
2023-02-11T07:14:30.464Z,36.83
2023-02-11T07:16:58.036Z,39.70
2023-02-11T07:19:25.069Z,39.00
2023-02-11T07:21:52.223Z,37.53
2023-02-11T07:24:19.054Z,41.70
2023-02-11T07:26:46.076Z,41.22
2023-02-11T07:29:12.951Z,39.50
2023-02-11T07:31:40.245Z,37.70
2023-02-11T07:34:07.190Z,37.00
2023-02-11T07:36:34.211Z,35.17
2023-02-11T07:39:01.186Z,39.97
2023-02-11T07:41:28.406Z,36.97
2023-02-11T07:43:55.828Z,39.13
2023-02-11T07:46:27.849Z,36.90
2023-02-11T07:48:55.722Z,40.70
2023-02-11T07:51:26.007Z,38.15
2023-02-11T07:53:53.751Z,38.30
2023-02-11T07:56:21.761Z,36.08
2023-02-11T07:58:49.409Z,36.55
2023-02-11T08:01:25.028Z,34.85
2023-02-11T08:03:52.301Z,32.33
2023-02-11T08:06:21.284Z,42.03
2023-02-11T08:08:49.202Z,37.25
2023-02-11T08:11:25.969Z,35.30
2023-02-11T08:13:54.129Z,35.95
2023-02-11T08:16:23.825Z,36.03
2023-02-11T08:18:52.306Z,43.13
2023-02-11T08:21:22.128Z,34.40
2023-02-11T08:23:49.960Z,37.95
2023-02-11T08:26:20.082Z,36.85
2023-02-11T08:28:48.574Z,34.78
2023-02-11T08:31:19.261Z,38.28
2023-02-11T08:33:47.057Z,38.70
2023-02-11T08:36:35.765Z,35.35
2023-02-11T08:39:18.023Z,38.03
2023-02-11T08:41:48.921Z,35.45
2023-02-11T08:44:17.333Z,37.38
2023-02-11T08:46:44.464Z,34.08
2023-02-11T08:49:11.859Z,36.17
2023-02-11T08:51:38.763Z,32.75
2023-02-11T08:54:10.575Z,35.53
2023-02-11T08:56:38.341Z,36.67
2023-02-11T08:59:06.505Z,38.17
2023-02-11T09:01:33.561Z,32.92
2023-02-11T09:04:01.555Z,37.00
2023-02-11T09:06:29.260Z,34.00
2023-02-11T09:08:59.269Z,31.75
2023-02-11T09:11:33.185Z,33.55
2023-02-11T09:14:01.541Z,34.95
2023-02-11T09:16:32.548Z,35.28
2023-02-11T09:19:01.142Z,33.25
2023-02-11T09:21:29.020Z,31.02
2023-02-11T09:23:56.999Z,31.10
2023-02-11T09:26:30.161Z,33.22
2023-02-11T09:29:02.294Z,34.40
2023-02-11T09:31:31.837Z,28.70
2023-02-11T09:34:11.277Z,31.95
2023-02-11T09:36:39.688Z,35.08
2023-02-11T09:39:12.289Z,30.42
2023-02-11T09:41:55.861Z,31.80
2023-02-11T09:44:27.053Z,31.80
2023-02-11T09:47:04.465Z,31.23
2023-02-11T09:49:40.503Z,33.38
2023-02-11T09:52:44.940Z,31.88
2023-02-11T09:55:17.844Z,28.20
2023-02-11T09:57:44.662Z,31.40
2023-02-11T10:00:33.508Z,32.35
2023-02-11T10:03:09.888Z,26.92
2023-02-11T10:05:36.744Z,30.30
2023-02-11T10:08:16.938Z,32.47
2023-02-11T10:10:59.912Z,29.52
2023-02-11T10:13:42.619Z,30.67
2023-02-11T10:16:35.665Z,29.50
2023-02-11T10:19:15.219Z,31.30
2023-02-11T10:22:23.552Z,35.17
2023-02-11T10:25:00.468Z,30.88
2023-02-11T10:27:36.301Z,33.53
2023-02-11T10:30:09.990Z,26.92
2023-02-11T10:32:46.835Z,29.92
2023-02-11T10:35:18.396Z,32.38
2023-02-11T10:37:45.691Z,29.15
2023-02-11T10:40:18.139Z,29.40
2023-02-11T10:42:55.867Z,30.15
2023-02-11T11:06:02.186Z,27.23
2023-02-11T11:08:48.902Z,26.88
2023-02-11T11:11:17.230Z,25.33
2023-02-11T11:13:53.060Z,30.20
2023-02-11T11:16:24.467Z,28.13
2023-02-11T11:19:13.666Z,26.15
2023-02-11T11:21:52.802Z,26.23
2023-02-11T11:24:31.506Z,31.83
2023-02-11T11:27:04.172Z,23.90
2023-02-11T11:29:46.035Z,26.73
2023-02-11T11:32:32.712Z,22.98
2023-02-11T11:35:08.425Z,24.77
2023-02-11T11:37:36.985Z,24.60
2023-02-11T11:40:21.986Z,24.02
2023-02-11T11:43:23.903Z,24.90
2023-02-11T11:45:56.151Z,22.27
2023-02-11T11:48:28.484Z,18.30
2023-02-11T11:50:59.891Z,19.95
2023-02-11T11:53:38.841Z,22.25
2023-02-11T11:56:11.317Z,23.13
2023-02-11T11:58:38.741Z,19.88
2023-02-11T12:01:43.206Z,20.80
2023-02-11T12:04:25.852Z,23.42
2023-02-11T12:07:20.698Z,21.13
2023-02-11T12:10:14.397Z,21.02
2023-02-11T12:12:54.264Z,22.30
2023-02-11T12:15:55.611Z,25.90
2023-02-11T12:19:00.623Z,20.80
2023-02-11T12:21:55.173Z,24.27
2023-02-11T12:24:32.945Z,21.02
2023-02-11T12:27:10.439Z,24.02
2023-02-11T12:30:04.755Z,21.48
2023-02-11T12:32:49.174Z,24.33
2023-02-11T12:35:43.425Z,19.38
2023-02-11T12:38:19.261Z,19.95
2023-02-11T12:40:53.380Z,20.75
2023-02-11T12:43:41.102Z,22.52
2023-02-11T12:46:37.902Z,21.23
2023-02-11T12:49:32.876Z,21.20
2023-02-11T12:52:07.823Z,19.20
2023-02-11T12:54:34.715Z,21.33
2023-02-11T12:57:26.153Z,25.88
2023-02-11T13:00:12.359Z,17.25
2023-02-11T13:02:52.340Z,21.38
2023-02-11T13:05:39.680Z,21.65
2023-02-11T13:08:15.460Z,17.70
2023-02-11T13:10:47.380Z,20.35
2023-02-11T13:13:22.703Z,17.23
2023-02-11T13:15:52.338Z,14.85
2023-02-11T13:18:37.549Z,15.82
2023-02-11T13:21:16.693Z,14.15
2023-02-11T13:24:05.634Z,14.55
2023-02-11T13:26:41.533Z,17.25
2023-02-11T13:29:49.114Z,15.23
2023-02-11T13:32:16.233Z,15.70
2023-02-11T13:34:43.147Z,17.92
2023-02-11T13:37:34.558Z,13.02
2023-02-11T13:40:24.759Z,12.88
2023-02-11T13:42:54.544Z,12.93
2023-02-11T13:45:30.506Z,10.63
2023-02-11T13:47:59.907Z,12.27
2023-02-11T13:50:29.018Z,12.02
2023-02-11T13:53:04.516Z,11.88
2023-02-11T13:55:32.385Z,10.35
2023-02-11T13:58:07.991Z,11.90
2023-02-11T14:00:34.727Z,13.37
2023-02-11T14:03:29.394Z,11.13
2023-02-11T14:06:27.269Z,13.07
2023-02-11T14:29:07.309Z,12.88
2023-02-11T14:31:34.879Z,12.40
2023-02-11T14:34:23.578Z,12.27
2023-02-11T14:37:27.405Z,10.52
2023-02-11T14:40:29.873Z,9.70
2023-02-11T14:43:04.057Z,10.60
2023-02-11T14:45:38.884Z,10.55
2023-02-11T14:48:17.067Z,9.63
2023-02-11T14:50:53.225Z,10.02
2023-02-11T14:53:24.254Z,10.27
2023-02-11T14:55:53.760Z,8.90
2023-02-11T14:58:23.100Z,9.40
2023-02-11T15:01:03.562Z,9.52
2023-02-11T15:03:43.946Z,9.32
2023-02-11T15:06:22.476Z,11.38
2023-02-11T15:09:02.926Z,8.55
2023-02-11T15:11:35.425Z,8.43
2023-02-11T15:14:10.549Z,9.43
2023-02-11T15:16:43.032Z,8.88
2023-02-11T15:19:31.818Z,8.60
2023-02-11T15:22:00.934Z,8.75
2023-02-11T15:24:35.413Z,9.65
2023-02-11T15:27:16.126Z,9.05
2023-02-11T15:29:46.826Z,6.80
2023-02-11T15:32:16.990Z,6.38
2023-02-11T15:34:46.401Z,6.55
2023-02-11T15:37:21.225Z,6.57
2023-02-11T15:39:48.664Z,10.45
2023-02-11T15:42:23.039Z,8.07
2023-02-11T15:45:08.584Z,7.43
2023-02-11T15:47:35.861Z,5.97
2023-02-11T15:50:03.187Z,7.90
2023-02-11T15:52:30.621Z,6.40
2023-02-11T15:55:00.661Z,6.85
2023-02-11T15:57:27.907Z,7.65
2023-02-11T15:59:56.229Z,7.15
2023-02-11T16:02:34.834Z,6.18
2023-02-11T16:05:08.155Z,11.65
2023-02-11T16:07:49.838Z,7.55
2023-02-11T16:10:19.584Z,6.75
2023-02-11T16:13:06.300Z,8.85
2023-02-11T16:15:52.485Z,22.38
2023-02-11T16:18:52.039Z,22.35
2023-02-11T16:24:40.985Z,7.57
2023-02-11T16:33:29.265Z,22.65
2023-02-11T16:35:57.858Z,20.63
2023-02-11T16:38:24.750Z,20.27
2023-02-11T16:40:52.010Z,24.33
2023-02-11T16:43:20.082Z,25.63
2023-02-11T16:45:47.079Z,26.00
2023-02-11T16:48:18.414Z,24.83
2023-02-11T16:50:50.674Z,22.98
2023-02-11T16:53:22.824Z,23.48
2023-02-11T16:55:50.814Z,24.15
2023-02-11T16:58:18.222Z,23.95
2023-02-11T17:00:46.980Z,26.75
2023-02-11T17:03:40.601Z,22.38
2023-02-11T17:06:10.546Z,25.45
2023-02-11T17:08:37.640Z,23.63
2023-02-11T17:11:04.749Z,24.33
2023-02-11T17:13:32.784Z,21.58
2023-02-11T17:15:59.753Z,25.02
2023-02-11T17:18:26.848Z,22.30
2023-02-11T17:20:53.748Z,22.33
2023-02-11T17:23:20.655Z,23.48
2023-02-11T17:25:54.355Z,23.45
2023-02-11T17:28:21.437Z,26.08
2023-02-11T17:33:29.519Z,22.67
2023-02-11T17:36:05.002Z,25.77
2023-02-11T17:41:12.973Z,25.42
2023-02-11T17:43:39.880Z,24.83
2023-02-11T17:46:08.381Z,22.15
2023-02-11T17:48:37.102Z,24.83
2023-02-11T17:51:04.543Z,27.58
2023-02-11T17:53:31.985Z,25.00
2023-02-11T17:56:01.201Z,23.40
2023-02-11T17:58:28.079Z,25.45
2023-02-11T18:00:58.609Z,21.52
2023-02-11T18:03:25.516Z,23.67
2023-02-11T18:05:52.614Z,23.80
2023-02-11T18:08:19.623Z,23.83
2023-02-11T18:10:46.472Z,24.33
2023-02-11T18:13:13.429Z,24.20
2023-02-11T18:15:40.228Z,23.17
2023-02-11T18:18:07.076Z,24.08
2023-02-11T18:20:34.124Z,21.98
2023-02-11T18:23:01.049Z,23.42
2023-02-11T18:25:27.818Z,21.23
2023-02-11T18:27:54.979Z,24.02
2023-02-11T18:30:22.434Z,22.55
2023-02-11T18:32:56.852Z,18.70
2023-02-11T18:35:24.311Z,21.67
2023-02-11T18:37:52.057Z,18.98
2023-02-11T18:40:20.546Z,18.25
2023-02-11T18:42:47.720Z,15.57
2023-02-11T18:45:16.597Z,15.75
2023-02-11T18:47:47.241Z,19.83
2023-02-11T18:50:16.031Z,19.10
2023-02-11T18:52:45.553Z,19.52
2023-02-11T18:55:14.373Z,17.65
2023-02-11T18:57:43.068Z,20.77
2023-02-11T19:00:11.110Z,18.75
2023-02-11T19:02:38.132Z,17.77
2023-02-11T19:05:06.723Z,17.35
2023-02-11T19:07:33.631Z,18.63
2023-02-11T19:10:00.411Z,19.13
2023-02-11T19:12:27.306Z,22.10
2023-02-11T19:14:54.295Z,22.23
2023-02-11T19:17:21.163Z,23.30
2023-02-11T19:19:48.220Z,26.20
2023-02-11T19:22:15.196Z,25.42
2023-02-11T19:24:41.996Z,25.42
2023-02-11T19:27:09.846Z,24.90
2023-02-11T19:29:37.528Z,21.90
2023-02-11T19:32:06.251Z,19.30
2023-02-11T19:34:33.782Z,23.75
2023-02-11T19:37:01.699Z,18.20
2023-02-11T19:39:28.574Z,22.00
2023-02-11T19:41:55.494Z,23.95
2023-02-11T19:44:22.375Z,19.83
2023-02-11T19:46:50.225Z,19.17
2023-02-11T19:49:23.019Z,22.40
2023-02-11T19:51:55.373Z,19.15
2023-02-11T19:54:22.327Z,17.85
2023-02-11T19:56:49.554Z,20.13
2023-02-11T19:59:16.882Z,19.75
2023-02-11T20:01:46.162Z,19.30
2023-02-11T20:04:13.432Z,21.85
2023-02-11T20:06:40.455Z,20.42
2023-02-11T20:09:11.903Z,23.60
2023-02-11T20:11:39.882Z,20.40
2023-02-11T20:14:07.310Z,21.58
2023-02-11T20:16:47.652Z,20.17
2023-02-11T20:19:18.452Z,18.77
2023-02-11T20:21:47.499Z,20.73
2023-02-11T20:24:16.438Z,21.77
2023-02-11T20:26:45.301Z,18.60
2023-02-11T20:29:12.423Z,19.20
2023-02-11T20:31:39.449Z,16.55
2023-02-11T20:34:06.369Z,17.58
2023-02-11T20:36:35.773Z,18.77
2023-02-11T20:39:04.824Z,23.20
2023-02-11T20:41:36.207Z,18.92
2023-02-11T20:44:06.352Z,21.15
2023-02-11T20:46:35.524Z,20.40
2023-02-11T20:49:02.990Z,21.10
2023-02-11T20:51:32.778Z,20.67
2023-02-11T20:54:00.341Z,20.10
2023-02-11T20:56:30.949Z,21.05
2023-02-11T20:59:02.262Z,19.77
2023-02-11T21:01:30.848Z,21.83
2023-02-11T21:04:00.229Z,20.55
2023-02-11T21:06:32.593Z,19.55
2023-02-11T21:08:59.569Z,21.17
2023-02-11T21:11:26.376Z,21.17
2023-02-11T21:13:53.442Z,19.98
2023-02-11T21:16:21.018Z,19.65
2023-02-11T21:18:48.226Z,19.08
2023-02-11T21:21:16.092Z,18.73
2023-02-11T21:23:42.852Z,19.13
2023-02-11T21:26:10.330Z,19.95
2023-02-11T21:28:40.717Z,19.50
2023-02-11T21:31:08.191Z,20.15
2023-02-11T21:33:35.418Z,20.23
2023-02-11T21:36:05.399Z,20.65
2023-02-11T21:38:33.066Z,19.75
2023-02-11T21:41:07.431Z,19.45
2023-02-11T21:43:35.710Z,20.73
2023-02-11T21:46:12.580Z,20.23
2023-02-11T21:48:40.056Z,21.67
2023-02-11T21:51:14.048Z,20.08
2023-02-11T21:53:41.464Z,20.10
2023-02-11T21:56:16.174Z,18.45
2023-02-11T21:58:43.770Z,20.05
2023-02-11T22:01:16.695Z,20.60
2023-02-11T22:03:44.470Z,20.25
2023-02-11T22:06:15.844Z,18.55
2023-02-11T22:08:43.256Z,20.83
2023-02-11T22:11:13.125Z,21.38
2023-02-11T22:13:41.995Z,22.75
2023-02-11T22:16:13.284Z,20.58
2023-02-11T22:18:41.375Z,18.75
2023-02-11T22:21:12.497Z,21.75
2023-02-11T22:23:40.519Z,19.98
2023-02-11T22:26:16.741Z,21.95
2023-02-11T22:28:44.878Z,25.48
2023-02-11T22:31:26.601Z,21.85
2023-02-11T22:33:54.329Z,24.95
2023-02-11T22:36:25.514Z,23.73
2023-02-11T22:38:54.354Z,20.92
2023-02-11T22:41:22.322Z,23.17
2023-02-11T22:43:49.894Z,22.35
2023-02-11T22:46:19.256Z,21.98
2023-02-11T22:48:47.301Z,19.50
2023-02-11T22:51:17.722Z,22.55
2023-02-11T22:53:46.605Z,20.10
2023-02-11T22:56:15.914Z,21.83
2023-02-11T22:58:43.805Z,21.77
2023-02-11T23:01:11.519Z,22.65
2023-02-11T23:03:38.930Z,23.27
2023-02-11T23:06:07.245Z,24.20
2023-02-11T23:08:37.706Z,22.45
2023-02-11T23:11:16.055Z,23.67
2023-02-11T23:13:44.964Z,27.10
2023-02-11T23:16:18.947Z,23.02
2023-02-11T23:18:48.408Z,24.63
2023-02-11T23:21:24.793Z,22.52
2023-02-11T23:24:15.985Z,21.73
2023-02-11T23:26:46.113Z,23.58
2023-02-11T23:29:13.640Z,23.17
2023-02-11T23:31:46.468Z,20.90
2023-02-11T23:34:20.471Z,24.20
2023-02-11T23:36:47.768Z,23.35
2023-02-11T23:39:16.290Z,20.88
2023-02-11T23:41:44.759Z,21.15
2023-02-11T23:44:12.981Z,20.33
2023-02-11T23:46:40.957Z,22.70
2023-02-11T23:49:08.407Z,24.60
2023-02-11T23:51:35.713Z,21.58
2023-02-11T23:54:03.785Z,24.90
2023-02-11T23:56:31.469Z,25.33
2023-02-11T23:59:00.126Z,29.23
